createdAt,value
2023-04-17T00:01:06.180Z,29.10
2023-04-17T00:03:33.739Z,27.33
2023-04-17T00:06:01.218Z,26.00
2023-04-17T00:08:28.459Z,24.08
2023-04-17T00:11:04.635Z,27.08
2023-04-17T00:13:34.877Z,25.90
2023-04-17T00:16:02.182Z,28.33
2023-04-17T00:18:29.494Z,25.50
2023-04-17T00:20:57.156Z,26.02
2023-04-17T00:23:24.755Z,25.10
2023-04-17T00:25:51.982Z,27.40
2023-04-17T00:28:19.458Z,26.38
2023-04-17T00:30:46.947Z,25.85
2023-04-17T00:33:14.224Z,28.30
2023-04-17T00:35:41.512Z,30.23
2023-04-17T00:38:09.578Z,26.60
2023-04-17T00:40:36.951Z,25.92
2023-04-17T00:43:04.812Z,26.92
2023-04-17T00:45:32.378Z,27.55
2023-04-17T00:48:00.382Z,27.65
2023-04-17T00:50:28.653Z,24.88
2023-04-17T00:52:56.615Z,25.33
2023-04-17T00:55:24.118Z,25.38
2023-04-17T00:57:53.903Z,24.85
2023-04-17T01:00:21.394Z,29.13
2023-04-17T01:02:48.824Z,26.10
2023-04-17T01:05:16.299Z,25.27
2023-04-17T01:07:43.665Z,25.60
2023-04-17T01:10:11.369Z,23.48
2023-04-17T01:12:38.649Z,23.55
2023-04-17T01:15:06.206Z,27.67
2023-04-17T01:17:33.514Z,25.27
2023-04-17T01:20:00.914Z,24.33
2023-04-17T01:22:28.163Z,24.50
2023-04-17T01:24:55.380Z,23.70
2023-04-17T01:27:22.770Z,28.58
2023-04-17T01:29:50.180Z,28.33
2023-04-17T01:32:17.789Z,24.00
2023-04-17T01:34:45.333Z,25.00
2023-04-17T01:37:12.658Z,20.48
2023-04-17T01:39:39.914Z,25.17
2023-04-17T01:42:07.240Z,24.73
2023-04-17T01:44:34.603Z,24.80
2023-04-17T01:47:01.855Z,24.77
2023-04-17T01:49:29.172Z,23.95
2023-04-17T01:51:56.509Z,24.15
2023-04-17T01:54:25.036Z,24.83
2023-04-17T01:56:53.214Z,28.30
2023-04-17T01:59:20.924Z,23.77
2023-04-17T02:01:48.226Z,31.73
2023-04-17T02:04:15.591Z,23.92
2023-04-17T02:06:43.024Z,22.92
2023-04-17T02:09:10.591Z,24.30
2023-04-17T02:11:38.009Z,25.35
2023-04-17T02:14:05.561Z,26.50
2023-04-17T02:16:32.961Z,28.35
2023-04-17T02:19:00.506Z,25.25
2023-04-17T02:21:28.254Z,28.75
2023-04-17T02:23:55.597Z,23.15
2023-04-17T02:26:23.541Z,24.23
2023-04-17T02:28:50.911Z,24.70
2023-04-17T02:31:18.221Z,21.95
2023-04-17T02:33:45.632Z,24.35
2023-04-17T02:36:12.951Z,23.15
2023-04-17T02:38:40.234Z,22.02
2023-04-17T02:41:07.564Z,23.13
2023-04-17T02:43:34.809Z,20.90
2023-04-17T02:46:02.164Z,23.15
2023-04-17T02:48:29.612Z,36.97
2023-04-17T02:50:56.949Z,20.67
2023-04-17T02:53:24.301Z,20.83
2023-04-17T02:55:51.553Z,22.90
2023-04-17T02:58:18.971Z,21.80
2023-04-17T03:00:46.432Z,22.23
2023-04-17T03:03:13.877Z,19.92
2023-04-17T03:05:41.821Z,19.80
2023-04-17T03:08:09.168Z,21.50
2023-04-17T03:10:36.404Z,21.70
2023-04-17T03:13:04.713Z,19.08
2023-04-17T03:15:32.093Z,22.15
2023-04-17T03:17:59.464Z,15.75
2023-04-17T03:20:27.188Z,14.27
2023-04-17T03:22:54.414Z,11.98
2023-04-17T03:25:21.744Z,13.43
2023-04-17T03:27:49.086Z,11.90
2023-04-17T03:30:16.354Z,9.70
2023-04-17T03:32:43.655Z,10.35
2023-04-17T03:35:10.959Z,9.30
2023-04-17T03:37:38.203Z,8.23
2023-04-17T03:40:06.636Z,11.45
2023-04-17T03:42:33.972Z,9.15
2023-04-17T03:45:01.296Z,9.73
2023-04-17T03:47:28.629Z,9.95
2023-04-17T03:49:55.936Z,14.85
2023-04-17T03:52:24.431Z,11.38
2023-04-17T03:54:51.851Z,12.98
2023-04-17T03:57:19.174Z,13.25
2023-04-17T03:59:46.479Z,12.82
2023-04-17T04:02:14.026Z,12.10
2023-04-17T04:04:41.490Z,10.65
2023-04-17T04:07:09.161Z,11.85
2023-04-17T04:09:36.435Z,10.38
2023-04-17T04:12:03.820Z,11.13
2023-04-17T04:14:31.117Z,10.43
2023-04-17T04:16:58.367Z,10.15
2023-04-17T04:19:25.764Z,10.15
2023-04-17T04:21:53.723Z,8.00
2023-04-17T04:24:21.136Z,9.75
2023-04-17T04:26:49.830Z,9.73
2023-04-17T04:29:17.991Z,9.32
2023-04-17T04:31:46.902Z,8.48
2023-04-17T04:34:17.017Z,8.05
2023-04-17T04:36:50.057Z,9.57
2023-04-17T04:39:20.501Z,9.45
2023-04-17T04:41:48.328Z,7.53
2023-04-17T04:44:15.723Z,10.15
2023-04-17T04:46:43.061Z,6.68
2023-04-17T04:49:10.661Z,7.28
2023-04-17T04:51:38.536Z,5.43
2023-04-17T04:54:06.457Z,7.70
2023-04-17T04:56:33.819Z,5.38
2023-04-17T04:59:01.110Z,4.93
2023-04-17T05:01:29.901Z,5.50
2023-04-17T05:03:57.426Z,7.32
2023-04-17T05:06:24.767Z,7.00
2023-04-17T05:08:59.270Z,6.25
2023-04-17T05:11:26.744Z,7.95
2023-04-17T05:13:54.096Z,5.20
2023-04-17T05:16:21.794Z,5.82
2023-04-17T05:18:49.091Z,6.18
2023-04-17T05:21:16.337Z,6.35
2023-04-17T05:23:43.710Z,5.45
2023-04-17T05:26:10.976Z,3.80
2023-04-17T05:28:38.239Z,4.40
2023-04-17T05:31:06.129Z,5.15
2023-04-17T05:33:33.422Z,4.68
2023-04-17T05:36:00.984Z,5.68
2023-04-17T05:38:28.283Z,4.32
2023-04-17T05:40:55.550Z,3.85
2023-04-17T05:43:22.799Z,3.67
2023-04-17T05:45:50.095Z,5.15
2023-04-17T05:48:17.511Z,3.85
2023-04-17T05:50:44.814Z,4.28
2023-04-17T05:53:12.243Z,4.15
2023-04-17T05:55:40.153Z,6.18
2023-04-17T05:58:22.114Z,6.43
2023-04-17T06:00:51.872Z,6.07
2023-04-17T06:03:19.675Z,4.93
2023-04-17T06:05:47.539Z,3.75
2023-04-17T06:08:14.924Z,4.22
2023-04-17T06:10:42.381Z,3.80
2023-04-17T06:13:09.691Z,4.57
2023-04-17T06:15:37.044Z,3.38
2023-04-17T06:18:04.371Z,4.00
2023-04-17T06:20:31.840Z,3.58
2023-04-17T06:22:59.535Z,2.30
2023-04-17T06:25:27.281Z,4.47
2023-04-17T06:27:54.536Z,3.60
2023-04-17T06:30:21.827Z,3.45
2023-04-17T06:32:49.169Z,4.50
2023-04-17T06:35:16.655Z,2.35
2023-04-17T06:37:44.007Z,5.70
2023-04-17T06:40:12.487Z,2.67
2023-04-17T06:42:39.796Z,6.25
2023-04-17T06:45:07.289Z,5.97
2023-04-17T06:47:34.593Z,2.45
2023-04-17T06:50:01.889Z,3.60
2023-04-17T06:52:29.141Z,3.65
2023-04-17T06:54:56.492Z,6.68
2023-04-17T06:57:23.872Z,2.28
2023-04-17T06:59:51.199Z,2.42
2023-04-17T07:02:18.682Z,6.90
2023-04-17T07:04:46.210Z,2.25
2023-04-17T07:07:13.544Z,2.97
2023-04-17T07:09:42.987Z,2.72
2023-04-17T07:12:10.302Z,2.72
2023-04-17T07:14:38.409Z,6.60
2023-04-17T07:17:13.034Z,3.85
2023-04-17T07:19:40.561Z,1.63
2023-04-17T07:22:10.224Z,2.95
2023-04-17T07:24:37.586Z,3.92
2023-04-17T07:27:06.898Z,3.40
2023-04-17T07:29:34.152Z,5.38
2023-04-17T07:32:01.444Z,4.30
2023-04-17T07:34:31.253Z,2.13
2023-04-17T07:36:58.621Z,3.47
2023-04-17T07:39:28.429Z,2.92
2023-04-17T07:41:56.398Z,2.00
2023-04-17T07:44:23.629Z,1.58
2023-04-17T07:46:51.012Z,1.60
2023-04-17T07:49:18.535Z,1.67
2023-04-17T07:51:46.188Z,5.28
2023-04-17T07:54:13.439Z,2.05
2023-04-17T07:56:40.952Z,6.15
2023-04-17T07:59:08.229Z,2.35
2023-04-17T08:01:35.540Z,3.28
2023-04-17T08:04:03.383Z,3.88
2023-04-17T08:06:31.350Z,2.17
2023-04-17T08:09:00.023Z,4.88
2023-04-17T08:11:27.362Z,3.00
2023-04-17T08:13:55.154Z,1.50
2023-04-17T08:16:22.737Z,2.17
2023-04-17T08:18:50.009Z,1.33
2023-04-17T08:21:17.253Z,1.73
2023-04-17T08:23:44.548Z,3.35
2023-04-17T08:26:11.817Z,2.15
2023-04-17T08:28:39.073Z,4.63
2023-04-17T08:31:08.680Z,3.60
2023-04-17T08:33:36.303Z,3.33
2023-04-17T08:36:04.818Z,2.00
2023-04-17T08:38:33.142Z,3.45
2023-04-17T08:41:03.530Z,6.00
2023-04-17T08:43:31.093Z,2.53
2023-04-17T08:45:58.555Z,3.45
2023-04-17T08:48:25.821Z,2.28
2023-04-17T08:50:53.950Z,1.45
2023-04-17T08:53:21.610Z,2.35
2023-04-17T08:55:49.363Z,1.98
2023-04-17T08:58:17.870Z,2.78
2023-04-17T09:00:45.961Z,1.58
2023-04-17T09:03:14.219Z,2.53
2023-04-17T09:05:43.798Z,1.50
2023-04-17T09:08:21.901Z,3.67
2023-04-17T09:10:50.127Z,1.10
2023-04-17T09:13:18.790Z,1.58
2023-04-17T09:15:47.295Z,2.20
2023-04-17T09:18:25.321Z,2.35
2023-04-17T09:20:53.055Z,3.47
2023-04-17T09:23:20.793Z,2.00
2023-04-17T09:26:05.970Z,2.53
2023-04-17T09:28:35.572Z,4.82
2023-04-17T09:31:05.581Z,2.45
2023-04-17T09:33:32.976Z,2.00
2023-04-17T09:36:22.093Z,1.63
2023-04-17T09:38:51.890Z,1.50
2023-04-17T09:41:27.189Z,3.08
2023-04-17T09:43:55.498Z,2.55
2023-04-17T09:46:32.927Z,1.30
2023-04-17T09:49:06.643Z,1.85
2023-04-17T09:51:35.113Z,1.40
2023-04-17T09:54:07.140Z,5.65
2023-04-17T09:56:35.564Z,3.55
2023-04-17T09:59:04.252Z,1.90
2023-04-17T10:01:32.638Z,4.07
2023-04-17T10:04:01.108Z,1.70
2023-04-17T10:06:29.005Z,2.20
2023-04-17T10:08:56.318Z,2.22
2023-04-17T10:11:25.036Z,3.45
2023-04-17T10:14:07.139Z,2.25
2023-04-17T10:16:35.652Z,0.98
2023-04-17T10:19:21.721Z,1.02
2023-04-17T10:21:50.916Z,5.47
2023-04-17T10:24:25.105Z,21.95
2023-04-17T10:26:52.373Z,5.50
2023-04-17T10:29:39.581Z,5.88
2023-04-17T10:32:10.036Z,2.90
2023-04-17T10:34:43.334Z,3.40
2023-04-17T10:37:15.701Z,25.67
2023-04-17T10:39:51.836Z,13.55
2023-04-17T10:42:22.855Z,1.77
2023-04-17T10:44:50.924Z,2.30
2023-04-17T10:47:22.554Z,1.95
2023-04-17T10:49:54.996Z,4.53
2023-04-17T10:52:40.813Z,2.15
2023-04-17T10:55:17.566Z,2.38
2023-04-17T10:57:51.033Z,4.32
2023-04-17T11:00:18.800Z,4.90
2023-04-17T11:02:47.320Z,1.48
2023-04-17T11:05:14.641Z,2.55
2023-04-17T11:07:43.861Z,2.45
2023-04-17T11:10:11.300Z,2.20
2023-04-17T11:12:39.355Z,2.17
2023-04-17T11:15:07.200Z,2.78
2023-04-17T11:17:34.523Z,2.53
2023-04-17T11:20:01.782Z,1.23
2023-04-17T11:22:33.975Z,2.40
2023-04-17T11:25:01.259Z,8.05
2023-04-17T11:27:28.623Z,0.95
2023-04-17T11:29:55.988Z,3.40
2023-04-17T11:32:23.262Z,3.33
2023-04-17T11:34:51.965Z,1.63
2023-04-17T11:37:19.432Z,2.40
2023-04-17T11:39:46.765Z,5.07
2023-04-17T11:42:14.019Z,4.38
2023-04-17T11:44:44.583Z,3.55
2023-04-17T11:47:11.894Z,3.47
2023-04-17T11:49:39.703Z,8.77
2023-04-17T11:52:07.019Z,3.00
2023-04-17T11:54:38.002Z,5.00
2023-04-17T11:57:06.327Z,2.35
2023-04-17T11:59:37.972Z,4.05
2023-04-17T12:02:07.292Z,4.88
2023-04-17T12:04:35.845Z,1.52
2023-04-17T12:07:03.743Z,1.48
2023-04-17T12:09:32.016Z,2.63
2023-04-17T12:11:59.644Z,3.40
2023-04-17T12:14:27.007Z,2.58
2023-04-17T12:16:54.269Z,4.13
2023-04-17T12:19:21.520Z,4.35
2023-04-17T12:21:48.878Z,5.85
2023-04-17T12:24:19.651Z,4.10
2023-04-17T12:26:47.513Z,2.60
2023-04-17T12:29:15.550Z,2.88
2023-04-17T12:31:43.081Z,1.90
2023-04-17T12:34:10.517Z,2.17
2023-04-17T12:36:38.344Z,3.47
2023-04-17T12:39:05.661Z,8.73
2023-04-17T12:41:32.919Z,4.05
2023-04-17T12:44:01.897Z,3.70
2023-04-17T12:46:29.281Z,4.55
2023-04-17T12:48:58.740Z,3.75
2023-04-17T12:51:30.564Z,8.10
2023-04-17T12:53:58.164Z,4.80
2023-04-17T12:56:25.449Z,2.63
2023-04-17T12:58:52.710Z,2.95
2023-04-17T13:01:20.040Z,3.13
2023-04-17T13:03:47.457Z,2.55
2023-04-17T13:06:16.900Z,3.20
2023-04-17T13:08:44.168Z,3.83
2023-04-17T13:11:11.542Z,4.53
2023-04-17T13:13:38.784Z,2.67
2023-04-17T13:16:06.236Z,4.57
2023-04-17T13:18:33.590Z,3.92
2023-04-17T13:21:00.848Z,3.88
2023-04-17T13:23:28.155Z,2.75
2023-04-17T13:25:55.493Z,4.65
2023-04-17T13:28:22.758Z,4.20
2023-04-17T13:30:50.434Z,3.20
2023-04-17T13:33:17.721Z,3.13
2023-04-17T13:35:45.069Z,5.75
2023-04-17T13:38:12.306Z,3.88
2023-04-17T13:40:41.003Z,2.88
2023-04-17T13:43:09.204Z,5.07
2023-04-17T13:45:36.921Z,3.53
2023-04-17T13:48:04.744Z,3.67
2023-04-17T13:50:32.332Z,4.97
2023-04-17T13:52:59.556Z,3.70
2023-04-17T13:55:26.845Z,3.72
2023-04-17T13:57:54.298Z,5.00
2023-04-17T14:00:22.153Z,5.18
2023-04-17T14:02:49.527Z,5.28
2023-04-17T14:05:17.025Z,4.68
2023-04-17T14:07:44.561Z,5.13
2023-04-17T14:10:11.808Z,7.45
2023-04-17T14:12:39.130Z,4.07
2023-04-17T14:15:07.462Z,7.45
2023-04-17T14:17:38.076Z,4.30
2023-04-17T14:20:05.913Z,4.53
2023-04-17T14:22:33.165Z,6.03
2023-04-17T14:25:00.483Z,5.68
2023-04-17T14:27:27.811Z,8.48
2023-04-17T14:29:55.187Z,5.38
2023-04-17T14:32:22.536Z,5.05
2023-04-17T14:34:49.887Z,16.23
2023-04-17T14:37:17.149Z,4.47
2023-04-17T14:39:44.453Z,10.15
2023-04-17T14:42:11.727Z,7.63
2023-04-17T14:44:38.956Z,9.95
2023-04-17T14:47:06.315Z,6.72
2023-04-17T14:49:33.690Z,6.65
2023-04-17T14:52:00.905Z,6.70
2023-04-17T14:54:28.369Z,4.70
2023-04-17T14:56:56.205Z,6.45
2023-04-17T14:59:23.436Z,6.13
2023-04-17T15:01:50.825Z,4.03
2023-04-17T15:04:18.273Z,4.22
2023-04-17T15:06:45.804Z,6.07
2023-04-17T15:09:13.527Z,3.83
2023-04-17T15:11:40.959Z,5.55
2023-04-17T15:14:08.197Z,5.47
2023-04-17T15:16:35.567Z,7.70
2023-04-17T15:19:02.889Z,4.28
2023-04-17T15:21:30.124Z,4.65
2023-04-17T15:23:57.364Z,6.10
2023-04-17T15:26:25.388Z,4.05
2023-04-17T15:28:52.619Z,8.90
2023-04-17T15:31:19.952Z,5.82
2023-04-17T15:33:47.625Z,8.02
2023-04-17T15:36:14.868Z,4.82
2023-04-17T15:38:42.162Z,6.57
2023-04-17T15:41:10.706Z,6.60
2023-04-17T15:43:38.566Z,7.57
2023-04-17T15:46:06.075Z,5.60
2023-04-17T15:48:33.425Z,6.60
2023-04-17T15:51:03.036Z,6.10
2023-04-17T15:53:30.308Z,6.38
2023-04-17T15:55:57.575Z,5.78
2023-04-17T15:58:25.106Z,7.13
2023-04-17T16:00:52.347Z,6.40
2023-04-17T16:03:20.223Z,7.50
2023-04-17T16:05:47.653Z,8.68
2023-04-17T16:08:14.890Z,7.03
2023-04-17T16:10:42.409Z,11.20
2023-04-17T16:13:09.656Z,9.25
2023-04-17T16:15:36.987Z,9.13
2023-04-17T16:18:04.740Z,13.00
2023-04-17T16:20:32.302Z,9.20
2023-04-17T16:22:59.540Z,7.75
2023-04-17T16:25:26.794Z,14.45
2023-04-17T16:27:54.038Z,6.07
2023-04-17T16:30:21.358Z,8.77
2023-04-17T16:32:50.252Z,8.90
2023-04-17T16:35:19.762Z,10.45
2023-04-17T16:37:47.134Z,8.40
2023-04-17T16:40:14.515Z,7.93
2023-04-17T16:42:41.880Z,9.43
2023-04-17T16:45:09.266Z,8.93
2023-04-17T16:47:39.019Z,11.32
2023-04-17T16:50:08.400Z,10.52
2023-04-17T16:52:37.212Z,9.63
2023-04-17T16:55:04.508Z,12.73
2023-04-17T16:57:32.152Z,12.75
2023-04-17T16:59:59.490Z,10.98
2023-04-17T17:02:26.843Z,12.55
2023-04-17T17:04:54.161Z,12.77
2023-04-17T17:07:21.517Z,13.65
2023-04-17T17:09:48.916Z,13.57
2023-04-17T17:12:16.206Z,14.85
2023-04-17T17:14:43.469Z,13.50
2023-04-17T17:17:10.753Z,12.20
2023-04-17T17:19:37.976Z,10.95
2023-04-17T17:22:05.369Z,12.90
2023-04-17T17:24:32.700Z,12.75
2023-04-17T17:26:59.931Z,13.27
2023-04-17T17:29:27.198Z,14.07
2023-04-17T17:31:54.536Z,17.77
2023-04-17T17:34:26.700Z,17.27
2023-04-17T17:36:54.452Z,17.02
2023-04-17T17:39:22.288Z,17.08
2023-04-17T17:41:49.818Z,19.85
2023-04-17T17:44:17.257Z,18.83
2023-04-17T17:46:44.540Z,22.10
2023-04-17T17:49:11.814Z,18.75
2023-04-17T17:51:39.092Z,19.88
2023-04-17T17:54:06.378Z,24.70
2023-04-17T17:56:33.685Z,20.75
2023-04-17T17:59:00.998Z,20.38
2023-04-17T18:01:28.238Z,22.00
2023-04-17T18:03:55.839Z,20.27
2023-04-17T18:06:23.343Z,17.10
2023-04-17T18:08:50.608Z,18.35
2023-04-17T18:11:17.841Z,18.73
2023-04-17T18:13:45.202Z,19.42
2023-04-17T18:16:12.548Z,18.33
2023-04-17T18:18:39.855Z,19.40
2023-04-17T18:21:07.881Z,17.60
2023-04-17T18:23:35.172Z,19.50
2023-04-17T18:26:03.039Z,18.83
2023-04-17T18:28:30.403Z,21.75
2023-04-17T18:30:57.741Z,19.25
2023-04-17T18:33:25.187Z,18.27
2023-04-17T18:35:52.537Z,19.08
2023-04-17T18:38:19.854Z,19.55
2023-04-17T18:40:47.101Z,17.90
2023-04-17T18:43:14.353Z,20.85
2023-04-17T18:45:41.588Z,18.98
2023-04-17T18:48:08.974Z,24.45
2023-04-17T18:50:38.481Z,22.83
2023-04-17T18:53:05.705Z,28.00
2023-04-17T18:55:33.259Z,31.27
2023-04-17T18:58:00.520Z,32.97
2023-04-17T19:00:27.832Z,31.70
2023-04-17T19:02:55.229Z,32.53
2023-04-17T19:05:22.890Z,36.50
2023-04-17T19:07:51.266Z,31.48
2023-04-17T19:10:18.818Z,39.40
2023-04-17T19:12:46.765Z,38.97
2023-04-17T19:15:14.113Z,40.55
2023-04-17T19:17:41.537Z,40.92
2023-04-17T19:20:09.500Z,31.95
2023-04-17T19:22:36.727Z,25.38
2023-04-17T19:25:04.138Z,22.92
2023-04-17T19:27:31.399Z,22.52
2023-04-17T19:29:58.729Z,21.13
2023-04-17T19:32:26.195Z,19.95
2023-04-17T19:34:53.585Z,17.88
2023-04-17T19:37:20.826Z,19.67
2023-04-17T19:39:48.120Z,18.60
2023-04-17T19:42:17.598Z,18.80
2023-04-17T19:44:44.888Z,20.10
2023-04-17T19:47:12.813Z,21.95
2023-04-17T19:49:40.093Z,21.00
2023-04-17T19:52:07.366Z,20.95
2023-04-17T19:54:34.574Z,17.88
2023-04-17T19:57:02.432Z,19.67
2023-04-17T19:59:29.698Z,20.08
2023-04-17T20:01:57.025Z,22.63
2023-04-17T20:04:24.487Z,18.13
2023-04-17T20:06:51.962Z,20.40
2023-04-17T20:09:19.420Z,19.58
2023-04-17T20:11:46.984Z,21.50
2023-04-17T20:14:19.605Z,19.52
2023-04-17T20:16:50.026Z,22.15
2023-04-17T20:19:17.494Z,18.17
2023-04-17T20:21:46.903Z,19.83
2023-04-17T20:24:16.107Z,19.65
2023-04-17T20:26:46.678Z,21.88
2023-04-17T20:29:14.307Z,20.75
2023-04-17T20:31:42.005Z,20.85
2023-04-17T20:34:10.813Z,24.85
2023-04-17T20:36:38.043Z,25.27
2023-04-17T20:39:05.515Z,24.38
2023-04-17T20:41:32.794Z,23.35
2023-04-17T20:44:00.742Z,23.52
2023-04-17T20:46:28.567Z,22.83
2023-04-17T20:48:55.946Z,22.08
2023-04-17T20:51:25.245Z,21.75
2023-04-17T20:53:52.872Z,22.63
2023-04-17T20:56:21.481Z,21.85
2023-04-17T20:58:48.724Z,21.70
2023-04-17T21:01:16.822Z,18.35
2023-04-17T21:03:44.394Z,19.05
2023-04-17T21:06:11.747Z,18.08
2023-04-17T21:08:39.076Z,14.85
2023-04-17T21:11:06.904Z,18.05
2023-04-17T21:13:34.193Z,17.45
2023-04-17T21:16:01.554Z,17.80
2023-04-17T21:18:28.907Z,18.63
2023-04-17T21:20:56.204Z,17.20
2023-04-17T21:23:23.509Z,16.63
2023-04-17T21:25:54.967Z,18.75
2023-04-17T21:28:22.311Z,19.67
2023-04-17T21:30:49.695Z,18.02
2023-04-17T21:33:16.967Z,19.35
2023-04-17T21:35:44.235Z,19.55
2023-04-17T21:38:11.483Z,18.80
2023-04-17T21:40:48.260Z,20.95
2023-04-17T21:43:17.791Z,20.10
2023-04-17T21:45:45.068Z,18.73
2023-04-17T21:48:12.341Z,20.83
2023-04-17T21:50:41.359Z,17.75
2023-04-17T21:53:08.946Z,21.30
2023-04-17T21:55:36.658Z,17.98
2023-04-17T21:58:04.053Z,22.20
2023-04-17T22:00:31.724Z,20.00
2023-04-17T22:02:59.499Z,22.52
2023-04-17T22:05:26.868Z,20.58
2023-04-17T22:07:55.548Z,18.95
2023-04-17T22:10:23.398Z,15.73
2023-04-17T22:12:50.737Z,20.52
2023-04-17T22:15:18.113Z,19.40
2023-04-17T22:17:45.426Z,22.25
2023-04-17T22:20:12.965Z,16.00
2023-04-17T22:22:40.286Z,14.93
2023-04-17T22:25:07.694Z,16.13
2023-04-17T22:27:34.975Z,18.02
2023-04-17T22:30:02.287Z,17.05
2023-04-17T22:32:29.557Z,17.77
2023-04-17T22:34:57.079Z,16.23
2023-04-17T22:37:24.398Z,19.73
2023-04-17T22:39:51.667Z,15.70
2023-04-17T22:42:18.942Z,12.70
2023-04-17T22:44:46.536Z,16.25
2023-04-17T22:47:13.798Z,15.77
2023-04-17T22:49:41.678Z,16.65
2023-04-17T22:52:11.205Z,13.73
2023-04-17T22:54:38.776Z,13.43
2023-04-17T22:57:06.054Z,14.73
2023-04-17T22:59:35.827Z,12.98
2023-04-17T23:02:03.311Z,12.98
2023-04-17T23:04:30.873Z,12.77
2023-04-17T23:06:58.218Z,13.60
2023-04-17T23:09:25.593Z,11.73
2023-04-17T23:11:52.855Z,12.25
2023-04-17T23:14:20.094Z,11.65
2023-04-17T23:16:47.370Z,13.20
2023-04-17T23:19:14.665Z,11.43
2023-04-17T23:21:41.926Z,13.45
2023-04-17T23:24:09.167Z,10.65
2023-04-17T23:26:36.442Z,11.43
2023-04-17T23:29:03.768Z,10.32
2023-04-17T23:31:31.066Z,11.93
2023-04-17T23:33:58.370Z,9.82
2023-04-17T23:36:26.909Z,10.02
2023-04-17T23:38:54.182Z,10.82
2023-04-17T23:41:21.921Z,12.70
2023-04-17T23:43:49.236Z,12.52
2023-04-17T23:46:16.633Z,12.95
2023-04-17T23:48:43.940Z,12.27
2023-04-17T23:51:11.215Z,12.75
2023-04-17T23:53:38.477Z,13.55
2023-04-17T23:56:06.085Z,11.10
2023-04-17T23:58:33.368Z,11.90
